sensor_id;sensor_type;location;lat;lon;timestamp;temperature;humidity
55135;DHT22;41031;44.750;11.308;2023-08-07T00:02:31;20.20;93.80
55135;DHT22;41031;44.750;11.308;2023-08-07T00:04:58;20.20;93.90
55135;DHT22;41031;44.750;11.308;2023-08-07T00:07:26;20.10;93.70
55135;DHT22;41031;44.750;11.308;2023-08-07T00:09:53;20.10;93.80
55135;DHT22;41031;44.750;11.308;2023-08-07T00:12:21;20.10;94.00
55135;DHT22;41031;44.750;11.308;2023-08-07T00:14:50;20.00;94.10
55135;DHT22;41031;44.750;11.308;2023-08-07T00:17:18;19.90;94.40
55135;DHT22;41031;44.750;11.308;2023-08-07T00:19:47;19.90;94.50
55135;DHT22;41031;44.750;11.308;2023-08-07T00:22:15;19.80;94.60
55135;DHT22;41031;44.750;11.308;2023-08-07T00:24:42;19.80;94.80
55135;DHT22;41031;44.750;11.308;2023-08-07T00:27:09;19.80;94.80
55135;DHT22;41031;44.750;11.308;2023-08-07T00:29:38;19.80;94.80
55135;DHT22;41031;44.750;11.308;2023-08-07T00:32:05;19.80;94.80
55135;DHT22;41031;44.750;11.308;2023-08-07T00:34:34;19.80;94.80
55135;DHT22;41031;44.750;11.308;2023-08-07T00:37:01;19.80;94.70
55135;DHT22;41031;44.750;11.308;2023-08-07T00:39:28;19.80;94.70
55135;DHT22;41031;44.750;11.308;2023-08-07T00:41:55;19.80;94.60
55135;DHT22;41031;44.750;11.308;2023-08-07T00:44:24;19.80;94.50
55135;DHT22;41031;44.750;11.308;2023-08-07T00:46:51;19.80;94.50
55135;DHT22;41031;44.750;11.308;2023-08-07T00:49:19;19.80;94.50
55135;DHT22;41031;44.750;11.308;2023-08-07T00:51:47;19.70;94.60
55135;DHT22;41031;44.750;11.308;2023-08-07T00:54:18;19.70;94.50
55135;DHT22;41031;44.750;11.308;2023-08-07T00:56:46;19.70;94.50
55135;DHT22;41031;44.750;11.308;2023-08-07T00:59:15;19.70;94.60
55135;DHT22;41031;44.750;11.308;2023-08-07T01:01:44;19.60;94.70
55135;DHT22;41031;44.750;11.308;2023-08-07T01:04:12;19.50;94.80
55135;DHT22;41031;44.750;11.308;2023-08-07T01:06:40;19.50;94.90
55135;DHT22;41031;44.750;11.308;2023-08-07T01:09:07;19.50;95.00
55135;DHT22;41031;44.750;11.308;2023-08-07T01:11:36;19.50;95.00
55135;DHT22;41031;44.750;11.308;2023-08-07T01:17:06;19.50;95.10
55135;DHT22;41031;44.750;11.308;2023-08-07T01:19:34;19.50;95.00
55135;DHT22;41031;44.750;11.308;2023-08-07T01:22:13;19.40;94.90
55135;DHT22;41031;44.750;11.308;2023-08-07T01:24:50;19.40;94.90
55135;DHT22;41031;44.750;11.308;2023-08-07T01:35:07;19.40;95.20
55135;DHT22;41031;44.750;11.308;2023-08-07T01:37:38;19.30;95.10
55135;DHT22;41031;44.750;11.308;2023-08-07T01:40:09;19.30;95.10
55135;DHT22;41031;44.750;11.308;2023-08-07T01:42:41;19.30;95.20
55135;DHT22;41031;44.750;11.308;2023-08-07T01:45:08;19.20;95.20
55135;DHT22;41031;44.750;11.308;2023-08-07T01:47:36;19.20;95.30
55135;DHT22;41031;44.750;11.308;2023-08-07T01:50:03;19.20;95.40
55135;DHT22;41031;44.750;11.308;2023-08-07T01:52:31;19.10;95.50
55135;DHT22;41031;44.750;11.308;2023-08-07T01:54:59;19.10;95.60
55135;DHT22;41031;44.750;11.308;2023-08-07T01:57:27;19.00;95.70
55135;DHT22;41031;44.750;11.308;2023-08-07T01:59:54;18.90;95.90
55135;DHT22;41031;44.750;11.308;2023-08-07T02:02:22;18.90;96.20
55135;DHT22;41031;44.750;11.308;2023-08-07T02:04:50;18.80;96.30
55135;DHT22;41031;44.750;11.308;2023-08-07T02:07:17;18.80;96.50
55135;DHT22;41031;44.750;11.308;2023-08-07T02:09:45;18.80;96.60
55135;DHT22;41031;44.750;11.308;2023-08-07T02:12:12;18.80;96.70
55135;DHT22;41031;44.750;11.308;2023-08-07T02:14:40;18.80;96.70
55135;DHT22;41031;44.750;11.308;2023-08-07T02:17:07;18.80;96.60
55135;DHT22;41031;44.750;11.308;2023-08-07T02:19:34;18.80;96.50
55135;DHT22;41031;44.750;11.308;2023-08-07T02:22:02;18.90;96.40
55135;DHT22;41031;44.750;11.308;2023-08-07T02:24:30;18.90;96.20
55135;DHT22;41031;44.750;11.308;2023-08-07T02:26:57;18.80;96.00
55135;DHT22;41031;44.750;11.308;2023-08-07T02:29:27;18.80;96.00
55135;DHT22;41031;44.750;11.308;2023-08-07T02:31:56;18.80;96.20
55135;DHT22;41031;44.750;11.308;2023-08-07T02:34:23;18.80;96.20
55135;DHT22;41031;44.750;11.308;2023-08-07T02:36:51;18.80;96.20
55135;DHT22;41031;44.750;11.308;2023-08-07T02:39:19;18.80;96.20
55135;DHT22;41031;44.750;11.308;2023-08-07T02:41:46;18.80;96.30
55135;DHT22;41031;44.750;11.308;2023-08-07T02:44:14;18.90;96.30
55135;DHT22;41031;44.750;11.308;2023-08-07T02:46:41;18.90;96.40
55135;DHT22;41031;44.750;11.308;2023-08-07T02:49:09;18.90;96.30
55135;DHT22;41031;44.750;11.308;2023-08-07T02:51:37;19.00;96.20
55135;DHT22;41031;44.750;11.308;2023-08-07T02:54:04;18.90;96.10
55135;DHT22;41031;44.750;11.308;2023-08-07T02:56:32;18.90;96.00
55135;DHT22;41031;44.750;11.308;2023-08-07T02:58:59;18.90;96.10
55135;DHT22;41031;44.750;11.308;2023-08-07T03:01:29;18.90;96.20
55135;DHT22;41031;44.750;11.308;2023-08-07T03:03:56;18.90;96.20
55135;DHT22;41031;44.750;11.308;2023-08-07T03:06:24;18.90;96.10
55135;DHT22;41031;44.750;11.308;2023-08-07T03:08:52;18.80;96.00
55135;DHT22;41031;44.750;11.308;2023-08-07T03:11:22;18.80;96.10
55135;DHT22;41031;44.750;11.308;2023-08-07T03:13:54;18.80;96.20
55135;DHT22;41031;44.750;11.308;2023-08-07T03:16:21;18.80;96.20
55135;DHT22;41031;44.750;11.308;2023-08-07T03:18:49;18.70;96.20
55135;DHT22;41031;44.750;11.308;2023-08-07T03:21:16;18.70;96.20
55135;DHT22;41031;44.750;11.308;2023-08-07T03:23:48;18.70;96.30
55135;DHT22;41031;44.750;11.308;2023-08-07T03:26:17;18.70;96.30
55135;DHT22;41031;44.750;11.308;2023-08-07T03:28:47;18.70;96.30
55135;DHT22;41031;44.750;11.308;2023-08-07T03:31:16;18.70;96.30
55135;DHT22;41031;44.750;11.308;2023-08-07T03:33:45;18.70;96.40
55135;DHT22;41031;44.750;11.308;2023-08-07T03:36:13;18.60;96.40
55135;DHT22;41031;44.750;11.308;2023-08-07T03:38:41;18.60;96.40
55135;DHT22;41031;44.750;11.308;2023-08-07T03:41:09;18.60;96.70
55135;DHT22;41031;44.750;11.308;2023-08-07T03:43:39;18.60;96.60
55135;DHT22;41031;44.750;11.308;2023-08-07T03:46:07;18.60;96.60
55135;DHT22;41031;44.750;11.308;2023-08-07T03:48:34;18.60;96.70
55135;DHT22;41031;44.750;11.308;2023-08-07T03:51:03;18.50;96.90
55135;DHT22;41031;44.750;11.308;2023-08-07T03:53:38;18.40;97.00
55135;DHT22;41031;44.750;11.308;2023-08-07T03:56:06;18.40;97.10
55135;DHT22;41031;44.750;11.308;2023-08-07T03:58:35;18.40;97.30
55135;DHT22;41031;44.750;11.308;2023-08-07T04:01:03;18.30;97.50
55135;DHT22;41031;44.750;11.308;2023-08-07T04:03:33;18.30;97.50
55135;DHT22;41031;44.750;11.308;2023-08-07T04:06:00;18.30;97.40
55135;DHT22;41031;44.750;11.308;2023-08-07T04:08:31;18.30;97.10
55135;DHT22;41031;44.750;11.308;2023-08-07T04:11:03;18.30;97.00
55135;DHT22;41031;44.750;11.308;2023-08-07T04:13:33;18.20;96.90
55135;DHT22;41031;44.750;11.308;2023-08-07T04:16:02;18.20;97.00
55135;DHT22;41031;44.750;11.308;2023-08-07T04:18:32;18.20;97.10
55135;DHT22;41031;44.750;11.308;2023-08-07T04:21:01;18.20;97.20
55135;DHT22;41031;44.750;11.308;2023-08-07T04:23:31;18.20;97.30
55135;DHT22;41031;44.750;11.308;2023-08-07T04:25:59;18.20;97.40
55135;DHT22;41031;44.750;11.308;2023-08-07T04:28:29;18.20;97.40
55135;DHT22;41031;44.750;11.308;2023-08-07T04:30:57;18.20;97.40
55135;DHT22;41031;44.750;11.308;2023-08-07T04:33:25;18.20;97.50
55135;DHT22;41031;44.750;11.308;2023-08-07T04:35:55;18.30;97.60
55135;DHT22;41031;44.750;11.308;2023-08-07T04:38:23;18.30;97.50
55135;DHT22;41031;44.750;11.308;2023-08-07T04:40:50;18.40;97.50
55135;DHT22;41031;44.750;11.308;2023-08-07T04:43:19;18.40;97.50
55135;DHT22;41031;44.750;11.308;2023-08-07T04:45:49;18.50;97.50
55135;DHT22;41031;44.750;11.308;2023-08-07T04:48:20;18.50;97.40
55135;DHT22;41031;44.750;11.308;2023-08-07T04:50:49;18.50;97.40
55135;DHT22;41031;44.750;11.308;2023-08-07T04:53:17;18.60;97.30
55135;DHT22;41031;44.750;11.308;2023-08-07T04:55:44;18.60;97.30
55135;DHT22;41031;44.750;11.308;2023-08-07T04:58:11;18.60;97.30
55135;DHT22;41031;44.750;11.308;2023-08-07T05:00:39;18.60;97.30
55135;DHT22;41031;44.750;11.308;2023-08-07T05:03:06;18.60;97.30
55135;DHT22;41031;44.750;11.308;2023-08-07T05:05:33;18.70;97.40
55135;DHT22;41031;44.750;11.308;2023-08-07T05:08:01;18.70;97.50
55135;DHT22;41031;44.750;11.308;2023-08-07T05:10:32;18.80;97.60
55135;DHT22;41031;44.750;11.308;2023-08-07T05:13:02;18.80;97.50
55135;DHT22;41031;44.750;11.308;2023-08-07T05:15:30;18.90;97.50
55135;DHT22;41031;44.750;11.308;2023-08-07T05:17:58;19.00;97.60
55135;DHT22;41031;44.750;11.308;2023-08-07T05:20:25;19.10;97.60
55135;DHT22;41031;44.750;11.308;2023-08-07T05:22:53;19.20;97.60
55135;DHT22;41031;44.750;11.308;2023-08-07T05:25:23;19.20;97.60
55135;DHT22;41031;44.750;11.308;2023-08-07T05:27:51;19.40;97.60
55135;DHT22;41031;44.750;11.308;2023-08-07T05:30:18;19.40;97.60
55135;DHT22;41031;44.750;11.308;2023-08-07T05:32:45;19.50;97.60
55135;DHT22;41031;44.750;11.308;2023-08-07T05:35:13;19.60;97.60
55135;DHT22;41031;44.750;11.308;2023-08-07T05:37:41;19.70;97.60
55135;DHT22;41031;44.750;11.308;2023-08-07T05:40:08;19.80;97.60
55135;DHT22;41031;44.750;11.308;2023-08-07T05:42:39;19.90;97.60
55135;DHT22;41031;44.750;11.308;2023-08-07T05:45:09;20.00;97.60
55135;DHT22;41031;44.750;11.308;2023-08-07T05:47:38;20.10;97.60
55135;DHT22;41031;44.750;11.308;2023-08-07T05:50:06;20.20;97.50
55135;DHT22;41031;44.750;11.308;2023-08-07T05:52:33;20.30;97.50
55135;DHT22;41031;44.750;11.308;2023-08-07T05:55:01;20.40;97.50
55135;DHT22;41031;44.750;11.308;2023-08-07T05:57:31;20.50;97.40
55135;DHT22;41031;44.750;11.308;2023-08-07T06:00:02;20.70;97.40
55135;DHT22;41031;44.750;11.308;2023-08-07T06:02:37;20.80;97.30
55135;DHT22;41031;44.750;11.308;2023-08-07T06:05:05;21.00;97.10
55135;DHT22;41031;44.750;11.308;2023-08-07T06:07:35;21.10;96.80
55135;DHT22;41031;44.750;11.308;2023-08-07T06:10:03;21.20;96.60
55135;DHT22;41031;44.750;11.308;2023-08-07T06:12:31;21.40;96.40
55135;DHT22;41031;44.750;11.308;2023-08-07T06:14:59;21.50;96.20
55135;DHT22;41031;44.750;11.308;2023-08-07T06:17:27;21.60;95.90
55135;DHT22;41031;44.750;11.308;2023-08-07T06:19:54;21.80;95.70
55135;DHT22;41031;44.750;11.308;2023-08-07T06:22:22;21.90;95.60
55135;DHT22;41031;44.750;11.308;2023-08-07T06:24:49;22.00;95.40
55135;DHT22;41031;44.750;11.308;2023-08-07T06:27:17;22.10;95.10
55135;DHT22;41031;44.750;11.308;2023-08-07T06:29:44;22.20;94.70
55135;DHT22;41031;44.750;11.308;2023-08-07T06:32:11;22.30;94.30
55135;DHT22;41031;44.750;11.308;2023-08-07T06:34:38;22.40;93.70
55135;DHT22;41031;44.750;11.308;2023-08-07T06:37:08;22.50;93.40
55135;DHT22;41031;44.750;11.308;2023-08-07T06:39:36;22.60;93.00
55135;DHT22;41031;44.750;11.308;2023-08-07T06:42:03;22.70;92.60
55135;DHT22;41031;44.750;11.308;2023-08-07T06:44:34;22.80;92.20
55135;DHT22;41031;44.750;11.308;2023-08-07T06:47:02;22.90;91.70
55135;DHT22;41031;44.750;11.308;2023-08-07T06:49:35;23.00;91.50
55135;DHT22;41031;44.750;11.308;2023-08-07T06:52:03;23.10;91.30
55135;DHT22;41031;44.750;11.308;2023-08-07T06:54:31;23.20;90.90
55135;DHT22;41031;44.750;11.308;2023-08-07T06:56:58;23.40;90.50
55135;DHT22;41031;44.750;11.308;2023-08-07T06:59:26;23.50;90.00
55135;DHT22;41031;44.750;11.308;2023-08-07T07:01:53;23.60;88.80
55135;DHT22;41031;44.750;11.308;2023-08-07T07:04:21;23.70;87.80
55135;DHT22;41031;44.750;11.308;2023-08-07T07:06:48;23.80;87.20
55135;DHT22;41031;44.750;11.308;2023-08-07T07:09:16;23.90;86.80
55135;DHT22;41031;44.750;11.308;2023-08-07T07:11:43;23.90;85.90
55135;DHT22;41031;44.750;11.308;2023-08-07T07:14:11;24.10;85.10
55135;DHT22;41031;44.750;11.308;2023-08-07T07:16:38;24.20;84.30
55135;DHT22;41031;44.750;11.308;2023-08-07T07:19:05;24.30;83.30
55135;DHT22;41031;44.750;11.308;2023-08-07T07:21:36;24.40;82.40
55135;DHT22;41031;44.750;11.308;2023-08-07T07:24:04;24.50;81.60
55135;DHT22;41031;44.750;11.308;2023-08-07T07:26:32;24.60;81.10
55135;DHT22;41031;44.750;11.308;2023-08-07T07:28:59;24.70;80.60
55135;DHT22;41031;44.750;11.308;2023-08-07T07:31:32;24.80;79.90
55135;DHT22;41031;44.750;11.308;2023-08-07T07:34:00;24.80;79.20
55135;DHT22;41031;44.750;11.308;2023-08-07T07:36:27;24.90;79.40
55135;DHT22;41031;44.750;11.308;2023-08-07T07:38:54;25.00;78.60
55135;DHT22;41031;44.750;11.308;2023-08-07T07:41:22;25.10;78.00
55135;DHT22;41031;44.750;11.308;2023-08-07T07:43:50;25.20;77.50
55135;DHT22;41031;44.750;11.308;2023-08-07T07:46:18;25.30;76.00
55135;DHT22;41031;44.750;11.308;2023-08-07T07:48:45;25.40;74.00
55135;DHT22;41031;44.750;11.308;2023-08-07T07:51:13;25.40;73.70
55135;DHT22;41031;44.750;11.308;2023-08-07T07:53:40;25.50;73.30
55135;DHT22;41031;44.750;11.308;2023-08-07T07:56:07;25.60;72.30
55135;DHT22;41031;44.750;11.308;2023-08-07T07:58:34;25.70;71.50
55135;DHT22;41031;44.750;11.308;2023-08-07T08:01:02;25.70;70.30
55135;DHT22;41031;44.750;11.308;2023-08-07T08:03:29;25.80;70.40
55135;DHT22;41031;44.750;11.308;2023-08-07T08:06:00;25.90;69.80
55135;DHT22;41031;44.750;11.308;2023-08-07T08:08:27;25.90;68.40
55135;DHT22;41031;44.750;11.308;2023-08-07T08:10:55;25.90;67.70
55135;DHT22;41031;44.750;11.308;2023-08-07T08:13:22;25.90;68.10
55135;DHT22;41031;44.750;11.308;2023-08-07T08:15:52;25.90;68.70
55135;DHT22;41031;44.750;11.308;2023-08-07T08:18:20;26.10;68.60
55135;DHT22;41031;44.750;11.308;2023-08-07T08:20:47;26.20;67.80
55135;DHT22;41031;44.750;11.308;2023-08-07T08:23:14;26.30;67.70
55135;DHT22;41031;44.750;11.308;2023-08-07T08:25:41;26.50;67.10
55135;DHT22;41031;44.750;11.308;2023-08-07T08:28:09;26.60;66.50
55135;DHT22;41031;44.750;11.308;2023-08-07T08:30:36;26.70;65.80
55135;DHT22;41031;44.750;11.308;2023-08-07T08:33:04;26.90;64.90
55135;DHT22;41031;44.750;11.308;2023-08-07T08:35:32;27.00;63.90
55135;DHT22;41031;44.750;11.308;2023-08-07T08:37:59;27.20;62.50
55135;DHT22;41031;44.750;11.308;2023-08-07T08:40:27;27.30;62.10
55135;DHT22;41031;44.750;11.308;2023-08-07T08:42:56;27.50;62.50
55135;DHT22;41031;44.750;11.308;2023-08-07T08:45:26;27.50;61.80
55135;DHT22;41031;44.750;11.308;2023-08-07T08:48:03;27.60;61.30
55135;DHT22;41031;44.750;11.308;2023-08-07T08:50:32;27.80;60.30
55135;DHT22;41031;44.750;11.308;2023-08-07T08:53:00;27.70;60.40
55135;DHT22;41031;44.750;11.308;2023-08-07T08:55:30;27.60;60.90
55135;DHT22;41031;44.750;11.308;2023-08-07T08:57:58;27.60;61.10
55135;DHT22;41031;44.750;11.308;2023-08-07T09:00:28;27.50;61.00
55135;DHT22;41031;44.750;11.308;2023-08-07T09:02:57;27.40;61.10
55135;DHT22;41031;44.750;11.308;2023-08-07T09:05:27;27.30;61.60
55135;DHT22;41031;44.750;11.308;2023-08-07T09:07:58;27.30;61.70
55135;DHT22;41031;44.750;11.308;2023-08-07T09:10:25;27.50;61.00
55135;DHT22;41031;44.750;11.308;2023-08-07T09:13:00;27.70;59.10
55135;DHT22;41031;44.750;11.308;2023-08-07T09:15:29;27.70;59.20
55135;DHT22;41031;44.750;11.308;2023-08-07T09:17:58;27.70;58.80
55135;DHT22;41031;44.750;11.308;2023-08-07T09:20:26;27.70;58.50
55135;DHT22;41031;44.750;11.308;2023-08-07T09:22:53;27.80;57.80
55135;DHT22;41031;44.750;11.308;2023-08-07T09:25:28;27.80;58.20
55135;DHT22;41031;44.750;11.308;2023-08-07T09:28:02;28.00;58.60
55135;DHT22;41031;44.750;11.308;2023-08-07T09:30:35;28.20;57.90
55135;DHT22;41031;44.750;11.308;2023-08-07T09:33:04;28.40;57.00
55135;DHT22;41031;44.750;11.308;2023-08-07T09:35:35;28.40;56.50
55135;DHT22;41031;44.750;11.308;2023-08-07T09:38:02;28.40;56.40
55135;DHT22;41031;44.750;11.308;2023-08-07T09:40:30;28.40;56.70
55135;DHT22;41031;44.750;11.308;2023-08-07T09:43:00;28.60;55.60
55135;DHT22;41031;44.750;11.308;2023-08-07T09:45:28;28.70;54.00
55135;DHT22;41031;44.750;11.308;2023-08-07T09:48:01;28.70;54.20
55135;DHT22;41031;44.750;11.308;2023-08-07T09:50:30;28.70;53.60
55135;DHT22;41031;44.750;11.308;2023-08-07T09:52:58;28.70;52.80
55135;DHT22;41031;44.750;11.308;2023-08-07T09:55:29;28.70;52.70
55135;DHT22;41031;44.750;11.308;2023-08-07T09:58:00;28.60;52.40
55135;DHT22;41031;44.750;11.308;2023-08-07T10:00:35;28.70;53.60
55135;DHT22;41031;44.750;11.308;2023-08-07T10:03:03;28.90;52.70
55135;DHT22;41031;44.750;11.308;2023-08-07T10:05:34;28.90;52.40
55135;DHT22;41031;44.750;11.308;2023-08-07T10:08:02;29.00;52.80
55135;DHT22;41031;44.750;11.308;2023-08-07T10:10:32;29.10;51.80
55135;DHT22;41031;44.750;11.308;2023-08-07T10:13:01;29.20;52.10
55135;DHT22;41031;44.750;11.308;2023-08-07T10:15:33;29.30;51.00
55135;DHT22;41031;44.750;11.308;2023-08-07T10:18:01;29.30;50.40
55135;DHT22;41031;44.750;11.308;2023-08-07T10:20:29;29.30;50.50
55135;DHT22;41031;44.750;11.308;2023-08-07T10:23:07;29.30;47.70
55135;DHT22;41031;44.750;11.308;2023-08-07T10:25:39;29.30;48.00
55135;DHT22;41031;44.750;11.308;2023-08-07T10:28:10;29.20;47.80
55135;DHT22;41031;44.750;11.308;2023-08-07T10:30:41;29.10;45.60
55135;DHT22;41031;44.750;11.308;2023-08-07T10:33:13;29.30;46.60
55135;DHT22;41031;44.750;11.308;2023-08-07T10:35:48;29.40;44.90
55135;DHT22;41031;44.750;11.308;2023-08-07T10:38:19;29.60;44.80
55135;DHT22;41031;44.750;11.308;2023-08-07T10:40:59;29.70;43.60
55135;DHT22;41031;44.750;11.308;2023-08-07T10:43:36;29.80;43.20
55135;DHT22;41031;44.750;11.308;2023-08-07T10:46:10;29.90;42.00
55135;DHT22;41031;44.750;11.308;2023-08-07T10:48:53;30.00;41.70
55135;DHT22;41031;44.750;11.308;2023-08-07T10:51:21;30.00;43.10
55135;DHT22;41031;44.750;11.308;2023-08-07T10:53:54;30.10;43.10
55135;DHT22;41031;44.750;11.308;2023-08-07T10:56:35;30.20;40.10
55135;DHT22;41031;44.750;11.308;2023-08-07T10:59:12;30.20;41.40
55135;DHT22;41031;44.750;11.308;2023-08-07T11:01:48;30.30;41.40
55135;DHT22;41031;44.750;11.308;2023-08-07T11:04:22;30.40;41.80
55135;DHT22;41031;44.750;11.308;2023-08-07T11:06:52;30.50;41.10
55135;DHT22;41031;44.750;11.308;2023-08-07T11:09:26;30.60;41.20
55135;DHT22;41031;44.750;11.308;2023-08-07T11:11:57;30.70;40.40
55135;DHT22;41031;44.750;11.308;2023-08-07T11:14:26;30.80;39.90
55135;DHT22;41031;44.750;11.308;2023-08-07T11:16:57;30.90;38.60
55135;DHT22;41031;44.750;11.308;2023-08-07T11:19:25;30.80;38.80
55135;DHT22;41031;44.750;11.308;2023-08-07T11:21:53;30.70;39.10
55135;DHT22;41031;44.750;11.308;2023-08-07T11:24:27;30.70;39.10
55135;DHT22;41031;44.750;11.308;2023-08-07T11:26:58;30.60;37.70
55135;DHT22;41031;44.750;11.308;2023-08-07T11:29:29;30.50;36.90
55135;DHT22;41031;44.750;11.308;2023-08-07T11:32:00;30.40;37.10
55135;DHT22;41031;44.750;11.308;2023-08-07T11:34:27;30.30;37.20
55135;DHT22;41031;44.750;11.308;2023-08-07T11:36:55;30.40;37.20
55135;DHT22;41031;44.750;11.308;2023-08-07T11:39:25;30.40;37.60
55135;DHT22;41031;44.750;11.308;2023-08-07T11:41:53;30.60;37.60
55135;DHT22;41031;44.750;11.308;2023-08-07T11:44:22;30.70;35.30
55135;DHT22;41031;44.750;11.308;2023-08-07T11:46:51;30.60;34.50
55135;DHT22;41031;44.750;11.308;2023-08-07T11:49:19;30.50;36.00
55135;DHT22;41031;44.750;11.308;2023-08-07T11:51:49;30.50;36.60
55135;DHT22;41031;44.750;11.308;2023-08-07T11:54:17;30.60;36.90
55135;DHT22;41031;44.750;11.308;2023-08-07T11:56:56;30.60;36.40
55135;DHT22;41031;44.750;11.308;2023-08-07T11:59:24;30.60;37.40
55135;DHT22;41031;44.750;11.308;2023-08-07T12:01:52;30.80;36.50
55135;DHT22;41031;44.750;11.308;2023-08-07T12:04:20;30.80;35.90
55135;DHT22;41031;44.750;11.308;2023-08-07T12:06:56;30.80;35.70
55135;DHT22;41031;44.750;11.308;2023-08-07T12:09:27;30.90;36.70
55135;DHT22;41031;44.750;11.308;2023-08-07T12:11:58;30.90;37.00
55135;DHT22;41031;44.750;11.308;2023-08-07T12:14:30;31.00;37.10
55135;DHT22;41031;44.750;11.308;2023-08-07T12:17:00;31.10;34.50
55135;DHT22;41031;44.750;11.308;2023-08-07T12:19:48;31.10;35.30
55135;DHT22;41031;44.750;11.308;2023-08-07T12:22:20;31.10;35.90
55135;DHT22;41031;44.750;11.308;2023-08-07T12:24:50;31.20;34.70
55135;DHT22;41031;44.750;11.308;2023-08-07T12:27:17;31.10;33.90
55135;DHT22;41031;44.750;11.308;2023-08-07T12:29:46;31.00;34.80
55135;DHT22;41031;44.750;11.308;2023-08-07T12:32:13;31.00;34.50
55135;DHT22;41031;44.750;11.308;2023-08-07T12:34:41;31.10;35.00
55135;DHT22;41031;44.750;11.308;2023-08-07T12:37:11;31.20;34.80
55135;DHT22;41031;44.750;11.308;2023-08-07T12:39:38;31.20;34.40
55135;DHT22;41031;44.750;11.308;2023-08-07T12:42:08;31.30;35.20
55135;DHT22;41031;44.750;11.308;2023-08-07T12:44:39;31.30;34.60
55135;DHT22;41031;44.750;11.308;2023-08-07T12:47:06;31.30;33.10
55135;DHT22;41031;44.750;11.308;2023-08-07T12:49:33;31.30;33.30
55135;DHT22;41031;44.750;11.308;2023-08-07T12:52:04;31.20;32.90
55135;DHT22;41031;44.750;11.308;2023-08-07T12:54:34;31.10;32.60
55135;DHT22;41031;44.750;11.308;2023-08-07T12:57:01;31.00;33.20
55135;DHT22;41031;44.750;11.308;2023-08-07T12:59:28;31.00;34.00
55135;DHT22;41031;44.750;11.308;2023-08-07T13:01:56;31.10;33.30
55135;DHT22;41031;44.750;11.308;2023-08-07T13:04:26;31.00;33.40
55135;DHT22;41031;44.750;11.308;2023-08-07T13:06:53;31.10;34.00
55135;DHT22;41031;44.750;11.308;2023-08-07T13:09:22;31.10;34.20
55135;DHT22;41031;44.750;11.308;2023-08-07T13:11:52;31.20;34.50
55135;DHT22;41031;44.750;11.308;2023-08-07T13:14:20;31.20;34.90
55135;DHT22;41031;44.750;11.308;2023-08-07T13:16:47;31.30;35.20
55135;DHT22;41031;44.750;11.308;2023-08-07T13:19:16;31.30;35.20
55135;DHT22;41031;44.750;11.308;2023-08-07T13:21:44;31.20;34.30
55135;DHT22;41031;44.750;11.308;2023-08-07T13:24:12;31.10;34.40
55135;DHT22;41031;44.750;11.308;2023-08-07T13:26:39;31.20;35.80
55135;DHT22;41031;44.750;11.308;2023-08-07T13:29:14;31.20;36.00
55135;DHT22;41031;44.750;11.308;2023-08-07T13:31:41;31.20;36.00
55135;DHT22;41031;44.750;11.308;2023-08-07T13:34:11;31.10;35.20
55135;DHT22;41031;44.750;11.308;2023-08-07T13:36:38;30.90;35.20
55135;DHT22;41031;44.750;11.308;2023-08-07T13:39:06;30.70;34.80
55135;DHT22;41031;44.750;11.308;2023-08-07T13:41:35;30.50;35.90
55135;DHT22;41031;44.750;11.308;2023-08-07T13:44:02;30.40;36.10
55135;DHT22;41031;44.750;11.308;2023-08-07T13:46:29;30.30;36.10
55135;DHT22;41031;44.750;11.308;2023-08-07T13:48:57;30.30;34.70
55135;DHT22;41031;44.750;11.308;2023-08-07T13:51:25;30.20;35.30
55135;DHT22;41031;44.750;11.308;2023-08-07T13:53:53;30.20;35.90
55135;DHT22;41031;44.750;11.308;2023-08-07T13:56:21;30.20;35.50
55135;DHT22;41031;44.750;11.308;2023-08-07T13:58:49;30.20;35.30
55135;DHT22;41031;44.750;11.308;2023-08-07T14:01:16;30.30;35.80
55135;DHT22;41031;44.750;11.308;2023-08-07T14:03:43;30.20;35.80
55135;DHT22;41031;44.750;11.308;2023-08-07T14:06:11;30.30;36.10
55135;DHT22;41031;44.750;11.308;2023-08-07T14:08:39;30.30;36.60
55135;DHT22;41031;44.750;11.308;2023-08-07T14:11:06;30.30;36.80
55135;DHT22;41031;44.750;11.308;2023-08-07T14:13:34;30.20;37.00
55135;DHT22;41031;44.750;11.308;2023-08-07T14:16:01;30.20;37.40
55135;DHT22;41031;44.750;11.308;2023-08-07T14:18:28;30.10;34.40
55135;DHT22;41031;44.750;11.308;2023-08-07T14:20:56;30.00;35.20
55135;DHT22;41031;44.750;11.308;2023-08-07T14:23:30;30.00;35.40
55135;DHT22;41031;44.750;11.308;2023-08-07T14:26:03;30.00;35.40
55135;DHT22;41031;44.750;11.308;2023-08-07T14:28:34;30.00;35.30
55135;DHT22;41031;44.750;11.308;2023-08-07T14:31:07;30.00;35.60
55135;DHT22;41031;44.750;11.308;2023-08-07T14:33:35;30.00;34.40
55135;DHT22;41031;44.750;11.308;2023-08-07T14:36:04;30.00;34.20
55135;DHT22;41031;44.750;11.308;2023-08-07T14:38:31;29.90;35.00
55135;DHT22;41031;44.750;11.308;2023-08-07T14:40:58;29.80;34.80
55135;DHT22;41031;44.750;11.308;2023-08-07T14:43:31;29.60;34.70
55135;DHT22;41031;44.750;11.308;2023-08-07T14:46:00;29.50;35.50
55135;DHT22;41031;44.750;11.308;2023-08-07T14:48:30;29.50;36.00
55135;DHT22;41031;44.750;11.308;2023-08-07T14:51:03;29.40;35.90
55135;DHT22;41031;44.750;11.308;2023-08-07T14:53:42;29.40;36.40
55135;DHT22;41031;44.750;11.308;2023-08-07T14:56:09;29.30;36.60
55135;DHT22;41031;44.750;11.308;2023-08-07T14:59:05;29.30;34.50
55135;DHT22;41031;44.750;11.308;2023-08-07T15:01:32;29.20;34.40
55135;DHT22;41031;44.750;11.308;2023-08-07T15:04:00;29.10;36.30
55135;DHT22;41031;44.750;11.308;2023-08-07T15:06:27;29.10;36.20
55135;DHT22;41031;44.750;11.308;2023-08-07T15:09:00;29.10;35.90
55135;DHT22;41031;44.750;11.308;2023-08-07T15:11:27;29.00;34.10
55135;DHT22;41031;44.750;11.308;2023-08-07T15:13:57;29.00;33.60
55135;DHT22;41031;44.750;11.308;2023-08-07T15:16:24;28.90;34.60
55135;DHT22;41031;44.750;11.308;2023-08-07T15:18:55;29.00;35.00
55135;DHT22;41031;44.750;11.308;2023-08-07T15:21:25;29.00;34.70
55135;DHT22;41031;44.750;11.308;2023-08-07T15:23:54;29.00;34.50
55135;DHT22;41031;44.750;11.308;2023-08-07T15:26:22;29.00;35.10
55135;DHT22;41031;44.750;11.308;2023-08-07T15:28:53;29.00;35.10
55135;DHT22;41031;44.750;11.308;2023-08-07T15:31:27;29.00;35.50
55135;DHT22;41031;44.750;11.308;2023-08-07T15:33:55;28.90;35.90
55135;DHT22;41031;44.750;11.308;2023-08-07T15:36:24;28.90;36.00
55135;DHT22;41031;44.750;11.308;2023-08-07T15:38:52;28.80;35.00